sensor_id;sensor_type;location;lat;lon;timestamp;P1;durP1;ratioP1;P2;durP2;ratioP2
61317;SDS011;47201;40.428;-8.436;2023-07-13T00:00:03;15.00;;;3.92;;
61317;SDS011;47201;40.428;-8.436;2023-07-13T00:02:13;14.93;;;4.18;;
61317;SDS011;47201;40.428;-8.436;2023-07-13T00:04:14;8.43;;;3.53;;
61317;SDS011;47201;40.428;-8.436;2023-07-13T00:06:15;12.65;;;3.30;;
61317;SDS011;47201;40.428;-8.436;2023-07-13T00:08:16;8.45;;;3.03;;
61317;SDS011;47201;40.428;-8.436;2023-07-13T00:10:17;9.40;;;3.40;;
61317;SDS011;47201;40.428;-8.436;2023-07-13T00:12:29;8.80;;;3.10;;
61317;SDS011;47201;40.428;-8.436;2023-07-13T00:14:31;13.32;;;3.45;;
61317;SDS011;47201;40.428;-8.436;2023-07-13T00:16:34;9.85;;;2.97;;
61317;SDS011;47201;40.428;-8.436;2023-07-13T00:18:36;11.77;;;3.20;;
61317;SDS011;47201;40.428;-8.436;2023-07-13T00:20:37;12.32;;;2.80;;
61317;SDS011;47201;40.428;-8.436;2023-07-13T00:22:38;10.27;;;2.70;;
61317;SDS011;47201;40.428;-8.436;2023-07-13T00:24:39;8.80;;;2.63;;
61317;SDS011;47201;40.428;-8.436;2023-07-13T00:26:45;15.25;;;3.25;;
61317;SDS011;47201;40.428;-8.436;2023-07-13T00:28:46;18.08;;;3.55;;
61317;SDS011;47201;40.428;-8.436;2023-07-13T00:30:46;14.50;;;2.72;;
61317;SDS011;47201;40.428;-8.436;2023-07-13T00:32:47;13.15;;;2.45;;
61317;SDS011;47201;40.428;-8.436;2023-07-13T00:34:48;13.88;;;3.03;;
61317;SDS011;47201;40.428;-8.436;2023-07-13T00:36:48;10.80;;;2.92;;
61317;SDS011;47201;40.428;-8.436;2023-07-13T00:38:49;21.50;;;4.22;;
61317;SDS011;47201;40.428;-8.436;2023-07-13T00:40:49;8.45;;;2.50;;
61317;SDS011;47201;40.428;-8.436;2023-07-13T00:42:51;9.63;;;3.03;;
61317;SDS011;47201;40.428;-8.436;2023-07-13T00:47:26;10.77;;;2.90;;
61317;SDS011;47201;40.428;-8.436;2023-07-13T00:49:28;13.27;;;3.47;;
61317;SDS011;47201;40.428;-8.436;2023-07-13T00:51:36;8.35;;;2.88;;
61317;SDS011;47201;40.428;-8.436;2023-07-13T00:53:43;18.20;;;4.03;;
61317;SDS011;47201;40.428;-8.436;2023-07-13T00:57:45;17.05;;;3.58;;
61317;SDS011;47201;40.428;-8.436;2023-07-13T00:59:47;12.10;;;3.15;;
61317;SDS011;47201;40.428;-8.436;2023-07-13T01:01:52;16.52;;;3.38;;
61317;SDS011;47201;40.428;-8.436;2023-07-13T01:03:53;10.52;;;3.10;;
61317;SDS011;47201;40.428;-8.436;2023-07-13T01:05:54;11.75;;;3.20;;
61317;SDS011;47201;40.428;-8.436;2023-07-13T01:07:55;14.48;;;3.50;;
61317;SDS011;47201;40.428;-8.436;2023-07-13T01:09:56;12.18;;;3.05;;
61317;SDS011;47201;40.428;-8.436;2023-07-13T01:11:57;15.60;;;3.30;;
61317;SDS011;47201;40.428;-8.436;2023-07-13T01:13:58;14.70;;;3.50;;
61317;SDS011;47201;40.428;-8.436;2023-07-13T01:16:01;9.93;;;2.95;;
61317;SDS011;47201;40.428;-8.436;2023-07-13T01:18:07;11.95;;;3.10;;
61317;SDS011;47201;40.428;-8.436;2023-07-13T01:20:09;12.55;;;3.13;;
61317;SDS011;47201;40.428;-8.436;2023-07-13T01:22:14;14.35;;;3.10;;
61317;SDS011;47201;40.428;-8.436;2023-07-13T01:24:16;9.32;;;3.05;;
61317;SDS011;47201;40.428;-8.436;2023-07-13T01:26:17;13.95;;;3.70;;
61317;SDS011;47201;40.428;-8.436;2023-07-13T01:28:18;15.48;;;3.42;;
61317;SDS011;47201;40.428;-8.436;2023-07-13T01:30:18;16.85;;;3.22;;
61317;SDS011;47201;40.428;-8.436;2023-07-13T01:32:20;14.43;;;3.53;;
61317;SDS011;47201;40.428;-8.436;2023-07-13T01:34:24;9.32;;;3.17;;
61317;SDS011;47201;40.428;-8.436;2023-07-13T01:36:24;10.80;;;3.17;;
61317;SDS011;47201;40.428;-8.436;2023-07-13T01:38:25;16.88;;;3.95;;
61317;SDS011;47201;40.428;-8.436;2023-07-13T01:40:26;12.55;;;3.08;;
61317;SDS011;47201;40.428;-8.436;2023-07-13T01:42:28;12.98;;;2.88;;
61317;SDS011;47201;40.428;-8.436;2023-07-13T01:44:29;15.85;;;3.38;;
61317;SDS011;47201;40.428;-8.436;2023-07-13T01:46:30;11.25;;;3.13;;
61317;SDS011;47201;40.428;-8.436;2023-07-13T01:48:30;11.98;;;3.03;;
61317;SDS011;47201;40.428;-8.436;2023-07-13T01:50:31;10.93;;;2.80;;
61317;SDS011;47201;40.428;-8.436;2023-07-13T01:52:32;12.73;;;3.20;;
61317;SDS011;47201;40.428;-8.436;2023-07-13T01:54:33;11.60;;;3.25;;
61317;SDS011;47201;40.428;-8.436;2023-07-13T01:56:34;17.10;;;3.72;;
61317;SDS011;47201;40.428;-8.436;2023-07-13T01:58:34;14.82;;;3.55;;
61317;SDS011;47201;40.428;-8.436;2023-07-13T02:00:35;9.80;;;2.95;;
61317;SDS011;47201;40.428;-8.436;2023-07-13T02:02:36;12.65;;;3.20;;
61317;SDS011;47201;40.428;-8.436;2023-07-13T02:04:36;7.75;;;2.67;;
61317;SDS011;47201;40.428;-8.436;2023-07-13T02:06:37;13.38;;;3.28;;
61317;SDS011;47201;40.428;-8.436;2023-07-13T02:08:38;12.68;;;3.20;;
61317;SDS011;47201;40.428;-8.436;2023-07-13T02:10:38;14.05;;;3.30;;
61317;SDS011;47201;40.428;-8.436;2023-07-13T02:12:40;11.85;;;3.35;;
61317;SDS011;47201;40.428;-8.436;2023-07-13T02:14:41;15.73;;;3.97;;
61317;SDS011;47201;40.428;-8.436;2023-07-13T02:16:42;13.07;;;4.63;;
61317;SDS011;47201;40.428;-8.436;2023-07-13T02:18:43;23.17;;;3.78;;
61317;SDS011;47201;40.428;-8.436;2023-07-13T02:20:44;15.55;;;4.13;;
61317;SDS011;47201;40.428;-8.436;2023-07-13T02:22:45;15.63;;;3.95;;
61317;SDS011;47201;40.428;-8.436;2023-07-13T02:24:46;17.55;;;4.25;;
61317;SDS011;47201;40.428;-8.436;2023-07-13T02:26:46;12.23;;;4.00;;
61317;SDS011;47201;40.428;-8.436;2023-07-13T02:28:48;23.92;;;4.03;;
61317;SDS011;47201;40.428;-8.436;2023-07-13T02:30:48;18.35;;;4.22;;
61317;SDS011;47201;40.428;-8.436;2023-07-13T02:32:49;11.13;;;3.70;;
61317;SDS011;47201;40.428;-8.436;2023-07-13T02:34:52;14.05;;;4.20;;
61317;SDS011;47201;40.428;-8.436;2023-07-13T02:36:53;17.80;;;4.68;;
61317;SDS011;47201;40.428;-8.436;2023-07-13T02:38:53;15.35;;;4.57;;
61317;SDS011;47201;40.428;-8.436;2023-07-13T02:40:54;13.55;;;3.90;;
61317;SDS011;47201;40.428;-8.436;2023-07-13T02:42:55;13.00;;;4.20;;
61317;SDS011;47201;40.428;-8.436;2023-07-13T02:44:55;14.63;;;3.83;;
61317;SDS011;47201;40.428;-8.436;2023-07-13T02:46:56;13.73;;;3.78;;
61317;SDS011;47201;40.428;-8.436;2023-07-13T02:48:57;22.00;;;4.28;;
61317;SDS011;47201;40.428;-8.436;2023-07-13T02:50:58;12.82;;;4.50;;
61317;SDS011;47201;40.428;-8.436;2023-07-13T02:52:59;21.95;;;5.10;;
61317;SDS011;47201;40.428;-8.436;2023-07-13T02:54:59;17.05;;;4.80;;
61317;SDS011;47201;40.428;-8.436;2023-07-13T02:57:00;14.85;;;4.30;;
61317;SDS011;47201;40.428;-8.436;2023-07-13T02:59:01;13.98;;;4.68;;
61317;SDS011;47201;40.428;-8.436;2023-07-13T03:03:06;17.88;;;4.50;;
61317;SDS011;47201;40.428;-8.436;2023-07-13T03:05:07;13.32;;;4.38;;
61317;SDS011;47201;40.428;-8.436;2023-07-13T03:07:13;14.40;;;5.00;;
61317;SDS011;47201;40.428;-8.436;2023-07-13T03:09:15;8.45;;;4.00;;
61317;SDS011;47201;40.428;-8.436;2023-07-13T03:11:21;16.08;;;5.28;;
61317;SDS011;47201;40.428;-8.436;2023-07-13T03:13:28;13.57;;;4.63;;
61317;SDS011;47201;40.428;-8.436;2023-07-13T03:15:29;19.33;;;5.13;;
61317;SDS011;47201;40.428;-8.436;2023-07-13T03:17:31;17.27;;;5.13;;
61317;SDS011;47201;40.428;-8.436;2023-07-13T03:19:32;15.27;;;4.95;;
61317;SDS011;47201;40.428;-8.436;2023-07-13T03:21:33;13.30;;;4.60;;
61317;SDS011;47201;40.428;-8.436;2023-07-13T03:23:34;19.75;;;6.22;;
61317;SDS011;47201;40.428;-8.436;2023-07-13T03:25:35;14.88;;;4.90;;
61317;SDS011;47201;40.428;-8.436;2023-07-13T03:27:36;15.77;;;5.13;;
61317;SDS011;47201;40.428;-8.436;2023-07-13T03:29:40;17.38;;;5.20;;
61317;SDS011;47201;40.428;-8.436;2023-07-13T03:31:44;14.77;;;4.85;;
61317;SDS011;47201;40.428;-8.436;2023-07-13T03:33:45;17.38;;;5.25;;
61317;SDS011;47201;40.428;-8.436;2023-07-13T03:35:47;18.95;;;5.20;;
61317;SDS011;47201;40.428;-8.436;2023-07-13T03:37:47;18.17;;;5.10;;
61317;SDS011;47201;40.428;-8.436;2023-07-13T03:39:53;12.98;;;5.20;;
61317;SDS011;47201;40.428;-8.436;2023-07-13T03:41:54;15.90;;;6.00;;
61317;SDS011;47201;40.428;-8.436;2023-07-13T03:43:55;25.40;;;6.93;;
61317;SDS011;47201;40.428;-8.436;2023-07-13T03:45:58;32.58;;;8.45;;
61317;SDS011;47201;40.428;-8.436;2023-07-13T03:47:59;24.15;;;6.32;;
61317;SDS011;47201;40.428;-8.436;2023-07-13T03:50:01;27.08;;;8.30;;
61317;SDS011;47201;40.428;-8.436;2023-07-13T03:52:01;31.05;;;8.30;;
61317;SDS011;47201;40.428;-8.436;2023-07-13T03:54:02;20.52;;;6.28;;
61317;SDS011;47201;40.428;-8.436;2023-07-13T03:56:03;34.60;;;8.07;;
61317;SDS011;47201;40.428;-8.436;2023-07-13T04:00:25;18.98;;;6.15;;
61317;SDS011;47201;40.428;-8.436;2023-07-13T04:02:28;19.65;;;5.78;;
61317;SDS011;47201;40.428;-8.436;2023-07-13T04:04:28;28.50;;;7.25;;
61317;SDS011;47201;40.428;-8.436;2023-07-13T04:06:32;20.75;;;6.70;;
61317;SDS011;47201;40.428;-8.436;2023-07-13T04:08:33;22.60;;;6.97;;
61317;SDS011;47201;40.428;-8.436;2023-07-13T04:10:36;26.90;;;7.13;;
61317;SDS011;47201;40.428;-8.436;2023-07-13T04:12:36;27.85;;;7.45;;
61317;SDS011;47201;40.428;-8.436;2023-07-13T04:14:37;24.52;;;7.25;;
61317;SDS011;47201;40.428;-8.436;2023-07-13T04:16:38;14.82;;;5.95;;
61317;SDS011;47201;40.428;-8.436;2023-07-13T04:18:39;21.30;;;6.18;;
61317;SDS011;47201;40.428;-8.436;2023-07-13T04:20:41;19.48;;;6.65;;
61317;SDS011;47201;40.428;-8.436;2023-07-13T04:22:42;18.30;;;5.18;;
61317;SDS011;47201;40.428;-8.436;2023-07-13T04:24:42;25.05;;;5.55;;
61317;SDS011;47201;40.428;-8.436;2023-07-13T04:28:44;21.17;;;6.43;;
61317;SDS011;47201;40.428;-8.436;2023-07-13T04:30:45;13.80;;;5.97;;
61317;SDS011;47201;40.428;-8.436;2023-07-13T04:32:46;20.70;;;6.82;;
61317;SDS011;47201;40.428;-8.436;2023-07-13T04:34:47;17.55;;;6.47;;
61317;SDS011;47201;40.428;-8.436;2023-07-13T04:36:53;16.40;;;5.93;;
61317;SDS011;47201;40.428;-8.436;2023-07-13T04:38:54;20.17;;;6.38;;
61317;SDS011;47201;40.428;-8.436;2023-07-13T04:40:55;24.70;;;7.05;;
61317;SDS011;47201;40.428;-8.436;2023-07-13T04:42:57;20.50;;;6.20;;
61317;SDS011;47201;40.428;-8.436;2023-07-13T04:44:58;16.42;;;5.78;;
61317;SDS011;47201;40.428;-8.436;2023-07-13T04:46:58;19.83;;;5.55;;
61317;SDS011;47201;40.428;-8.436;2023-07-13T04:48:59;14.15;;;4.97;;
61317;SDS011;47201;40.428;-8.436;2023-07-13T04:51:01;22.27;;;5.70;;
61317;SDS011;47201;40.428;-8.436;2023-07-13T04:53:02;15.38;;;5.20;;
61317;SDS011;47201;40.428;-8.436;2023-07-13T04:55:04;15.68;;;5.40;;
61317;SDS011;47201;40.428;-8.436;2023-07-13T04:57:05;17.00;;;4.95;;
61317;SDS011;47201;40.428;-8.436;2023-07-13T04:59:06;13.25;;;4.85;;
61317;SDS011;47201;40.428;-8.436;2023-07-13T05:01:07;13.07;;;5.32;;
61317;SDS011;47201;40.428;-8.436;2023-07-13T05:03:09;16.52;;;5.05;;
61317;SDS011;47201;40.428;-8.436;2023-07-13T05:05:10;12.65;;;5.50;;
61317;SDS011;47201;40.428;-8.436;2023-07-13T05:07:10;15.07;;;5.38;;
61317;SDS011;47201;40.428;-8.436;2023-07-13T05:09:12;12.18;;;4.50;;
61317;SDS011;47201;40.428;-8.436;2023-07-13T05:11:13;11.38;;;4.57;;
61317;SDS011;47201;40.428;-8.436;2023-07-13T05:13:13;11.55;;;4.68;;
61317;SDS011;47201;40.428;-8.436;2023-07-13T05:15:14;20.17;;;4.90;;
61317;SDS011;47201;40.428;-8.436;2023-07-13T05:17:16;11.63;;;4.45;;
61317;SDS011;47201;40.428;-8.436;2023-07-13T05:19:16;12.63;;;4.65;;
61317;SDS011;47201;40.428;-8.436;2023-07-13T05:21:17;11.40;;;4.22;;
61317;SDS011;47201;40.428;-8.436;2023-07-13T05:23:17;18.60;;;6.20;;
61317;SDS011;47201;40.428;-8.436;2023-07-13T05:25:18;17.35;;;5.05;;
61317;SDS011;47201;40.428;-8.436;2023-07-13T05:27:19;20.35;;;5.38;;
61317;SDS011;47201;40.428;-8.436;2023-07-13T05:29:20;16.73;;;5.35;;
61317;SDS011;47201;40.428;-8.436;2023-07-13T05:31:22;11.13;;;5.22;;
61317;SDS011;47201;40.428;-8.436;2023-07-13T05:33:22;18.40;;;5.97;;
61317;SDS011;47201;40.428;-8.436;2023-07-13T05:35:24;12.55;;;5.95;;
61317;SDS011;47201;40.428;-8.436;2023-07-13T05:37:24;13.15;;;5.90;;
61317;SDS011;47201;40.428;-8.436;2023-07-13T05:39:25;12.90;;;4.45;;
61317;SDS011;47201;40.428;-8.436;2023-07-13T05:41:27;8.52;;;3.58;;
61317;SDS011;47201;40.428;-8.436;2023-07-13T05:43:28;7.15;;;3.88;;
61317;SDS011;47201;40.428;-8.436;2023-07-13T05:45:29;14.07;;;4.15;;
61317;SDS011;47201;40.428;-8.436;2023-07-13T05:47:29;10.15;;;4.88;;
61317;SDS011;47201;40.428;-8.436;2023-07-13T05:49:30;19.13;;;5.45;;
61317;SDS011;47201;40.428;-8.436;2023-07-13T05:51:31;18.48;;;6.65;;
61317;SDS011;47201;40.428;-8.436;2023-07-13T05:53:31;21.50;;;7.38;;
61317;SDS011;47201;40.428;-8.436;2023-07-13T05:55:32;20.60;;;8.70;;
61317;SDS011;47201;40.428;-8.436;2023-07-13T05:57:33;27.83;;;9.73;;
61317;SDS011;47201;40.428;-8.436;2023-07-13T05:59:34;28.92;;;10.68;;
61317;SDS011;47201;40.428;-8.436;2023-07-13T06:01:35;31.60;;;11.13;;
61317;SDS011;47201;40.428;-8.436;2023-07-13T06:03:36;26.80;;;13.55;;
61317;SDS011;47201;40.428;-8.436;2023-07-13T06:05:38;30.75;;;13.30;;
61317;SDS011;47201;40.428;-8.436;2023-07-13T06:07:40;31.63;;;12.98;;
61317;SDS011;47201;40.428;-8.436;2023-07-13T06:09:44;28.98;;;14.02;;
61317;SDS011;47201;40.428;-8.436;2023-07-13T06:11:45;45.05;;;15.70;;
61317;SDS011;47201;40.428;-8.436;2023-07-13T06:13:46;19.77;;;14.15;;
61317;SDS011;47201;40.428;-8.436;2023-07-13T06:15:48;13.82;;;11.00;;
61317;SDS011;47201;40.428;-8.436;2023-07-13T06:17:49;53.65;;;15.95;;
61317;SDS011;47201;40.428;-8.436;2023-07-13T06:19:50;25.23;;;13.63;;
61317;SDS011;47201;40.428;-8.436;2023-07-13T06:21:50;38.28;;;16.80;;
61317;SDS011;47201;40.428;-8.436;2023-07-13T06:23:52;32.83;;;16.52;;
61317;SDS011;47201;40.428;-8.436;2023-07-13T06:25:53;36.05;;;15.63;;
61317;SDS011;47201;40.428;-8.436;2023-07-13T06:27:53;46.83;;;15.95;;
61317;SDS011;47201;40.428;-8.436;2023-07-13T06:29:54;39.28;;;15.10;;
61317;SDS011;47201;40.428;-8.436;2023-07-13T06:31:55;28.50;;;13.10;;
61317;SDS011;47201;40.428;-8.436;2023-07-13T06:33:55;49.50;;;18.05;;
61317;SDS011;47201;40.428;-8.436;2023-07-13T06:35:56;44.00;;;17.30;;
61317;SDS011;47201;40.428;-8.436;2023-07-13T06:37:57;40.38;;;16.30;;
61317;SDS011;47201;40.428;-8.436;2023-07-13T06:39:57;50.60;;;19.23;;
61317;SDS011;47201;40.428;-8.436;2023-07-13T06:41:58;54.67;;;19.42;;
61317;SDS011;47201;40.428;-8.436;2023-07-13T06:43:59;61.33;;;20.90;;
61317;SDS011;47201;40.428;-8.436;2023-07-13T06:45:59;81.25;;;25.75;;
61317;SDS011;47201;40.428;-8.436;2023-07-13T06:48:01;65.03;;;18.95;;
61317;SDS011;47201;40.428;-8.436;2023-07-13T06:50:01;36.17;;;13.70;;
61317;SDS011;47201;40.428;-8.436;2023-07-13T06:52:02;27.70;;;12.50;;
61317;SDS011;47201;40.428;-8.436;2023-07-13T06:54:04;18.90;;;9.15;;
61317;SDS011;47201;40.428;-8.436;2023-07-13T06:56:04;19.20;;;10.82;;
61317;SDS011;47201;40.428;-8.436;2023-07-13T06:58:05;21.25;;;11.98;;
61317;SDS011;47201;40.428;-8.436;2023-07-13T07:00:06;15.60;;;10.65;;
61317;SDS011;47201;40.428;-8.436;2023-07-13T07:02:10;33.65;;;14.40;;
61317;SDS011;47201;40.428;-8.436;2023-07-13T07:04:14;48.28;;;18.85;;
61317;SDS011;47201;40.428;-8.436;2023-07-13T07:06:18;41.65;;;16.63;;
61317;SDS011;47201;40.428;-8.436;2023-07-13T07:08:20;32.40;;;12.15;;
61317;SDS011;47201;40.428;-8.436;2023-07-13T07:10:21;29.25;;;12.68;;
61317;SDS011;47201;40.428;-8.436;2023-07-13T07:12:22;21.60;;;13.18;;
61317;SDS011;47201;40.428;-8.436;2023-07-13T07:14:23;30.63;;;13.60;;
61317;SDS011;47201;40.428;-8.436;2023-07-13T07:16:25;29.85;;;13.95;;
61317;SDS011;47201;40.428;-8.436;2023-07-13T07:18:26;37.88;;;14.45;;
61317;SDS011;47201;40.428;-8.436;2023-07-13T07:20:26;36.03;;;16.92;;
61317;SDS011;47201;40.428;-8.436;2023-07-13T07:22:27;47.10;;;18.10;;
61317;SDS011;47201;40.428;-8.436;2023-07-13T07:24:28;48.15;;;17.33;;
61317;SDS011;47201;40.428;-8.436;2023-07-13T07:26:29;51.28;;;17.73;;
61317;SDS011;47201;40.428;-8.436;2023-07-13T07:28:30;43.50;;;17.00;;
61317;SDS011;47201;40.428;-8.436;2023-07-13T07:30:31;53.70;;;19.45;;
61317;SDS011;47201;40.428;-8.436;2023-07-13T07:32:31;56.92;;;19.38;;
61317;SDS011;47201;40.428;-8.436;2023-07-13T07:34:32;39.83;;;17.27;;
61317;SDS011;47201;40.428;-8.436;2023-07-13T07:36:33;44.42;;;17.90;;
61317;SDS011;47201;40.428;-8.436;2023-07-13T07:38:34;23.33;;;8.45;;
61317;SDS011;47201;40.428;-8.436;2023-07-13T07:40:38;44.45;;;15.80;;
61317;SDS011;47201;40.428;-8.436;2023-07-13T07:42:40;38.85;;;12.52;;
61317;SDS011;47201;40.428;-8.436;2023-07-13T07:44:41;49.28;;;15.40;;
61317;SDS011;47201;40.428;-8.436;2023-07-13T07:46:41;46.65;;;15.18;;
61317;SDS011;47201;40.428;-8.436;2023-07-13T07:50:43;8.20;;;2.90;;
61317;SDS011;47201;40.428;-8.436;2023-07-13T07:52:43;6.25;;;2.97;;
61317;SDS011;47201;40.428;-8.436;2023-07-13T07:54:44;10.88;;;3.25;;
61317;SDS011;47201;40.428;-8.436;2023-07-13T07:56:45;10.40;;;4.85;;
61317;SDS011;47201;40.428;-8.436;2023-07-13T07:58:45;14.80;;;7.28;;
61317;SDS011;47201;40.428;-8.436;2023-07-13T08:00:46;24.13;;;9.68;;
61317;SDS011;47201;40.428;-8.436;2023-07-13T08:02:47;38.03;;;10.27;;
61317;SDS011;47201;40.428;-8.436;2023-07-13T08:04:48;35.60;;;8.95;;
61317;SDS011;47201;40.428;-8.436;2023-07-13T08:06:49;29.88;;;9.68;;
61317;SDS011;47201;40.428;-8.436;2023-07-13T08:08:49;33.83;;;9.02;;
61317;SDS011;47201;40.428;-8.436;2023-07-13T08:10:51;25.67;;;7.90;;
61317;SDS011;47201;40.428;-8.436;2023-07-13T08:12:52;29.30;;;7.80;;
61317;SDS011;47201;40.428;-8.436;2023-07-13T08:14:52;23.13;;;8.57;;
61317;SDS011;47201;40.428;-8.436;2023-07-13T08:17:00;25.17;;;7.85;;
61317;SDS011;47201;40.428;-8.436;2023-07-13T08:19:01;21.17;;;7.65;;
61317;SDS011;47201;40.428;-8.436;2023-07-13T08:21:05;24.00;;;7.30;;
61317;SDS011;47201;40.428;-8.436;2023-07-13T08:23:06;19.73;;;6.82;;
61317;SDS011;47201;40.428;-8.436;2023-07-13T08:25:09;22.17;;;7.18;;
61317;SDS011;47201;40.428;-8.436;2023-07-13T08:27:10;7.75;;;3.10;;
61317;SDS011;47201;40.428;-8.436;2023-07-13T08:29:14;2.80;;;2.13;;
61317;SDS011;47201;40.428;-8.436;2023-07-13T08:31:15;6.25;;;2.65;;
61317;SDS011;47201;40.428;-8.436;2023-07-13T08:33:16;11.27;;;4.25;;
61317;SDS011;47201;40.428;-8.436;2023-07-13T08:35:17;11.88;;;3.72;;
61317;SDS011;47201;40.428;-8.436;2023-07-13T08:37:18;15.75;;;5.97;;
61317;SDS011;47201;40.428;-8.436;2023-07-13T08:39:19;14.73;;;6.18;;
61317;SDS011;47201;40.428;-8.436;2023-07-13T08:41:20;11.23;;;5.07;;
61317;SDS011;47201;40.428;-8.436;2023-07-13T08:43:28;17.83;;;5.50;;
61317;SDS011;47201;40.428;-8.436;2023-07-13T08:47:38;19.40;;;5.43;;
61317;SDS011;47201;40.428;-8.436;2023-07-13T08:49:43;11.07;;;5.05;;
61317;SDS011;47201;40.428;-8.436;2023-07-13T08:51:49;21.27;;;4.95;;
61317;SDS011;47201;40.428;-8.436;2023-07-13T08:53:55;9.93;;;4.32;;
61317;SDS011;47201;40.428;-8.436;2023-07-13T08:56:01;8.00;;;4.15;;
61317;SDS011;47201;40.428;-8.436;2023-07-13T08:58:03;17.90;;;4.20;;
61317;SDS011;47201;40.428;-8.436;2023-07-13T09:00:11;14.27;;;4.75;;
61317;SDS011;47201;40.428;-8.436;2023-07-13T09:04:50;17.25;;;4.43;;
61317;SDS011;47201;40.428;-8.436;2023-07-13T09:07:20;12.15;;;4.50;;
61317;SDS011;47201;40.428;-8.436;2023-07-13T09:16:51;3.75;;;2.95;;
61317;SDS011;47201;40.428;-8.436;2023-07-13T09:18:52;8.25;;;3.30;;
61317;SDS011;47201;40.428;-8.436;2023-07-13T09:23:11;2.90;;;2.60;;
61317;SDS011;47201;40.428;-8.436;2023-07-13T09:27:27;5.40;;;2.70;;
61317;SDS011;47201;40.428;-8.436;2023-07-13T09:29:33;5.90;;;3.28;;
61317;SDS011;47201;40.428;-8.436;2023-07-13T09:31:47;3.47;;;2.53;;
61317;SDS011;47201;40.428;-8.436;2023-07-13T09:33:53;8.20;;;3.03;;
61317;SDS011;47201;40.428;-8.436;2023-07-13T09:35:54;5.55;;;2.50;;
61317;SDS011;47201;40.428;-8.436;2023-07-13T09:38:16;4.40;;;2.20;;
61317;SDS011;47201;40.428;-8.436;2023-07-13T09:40:28;8.98;;;2.90;;
61317;SDS011;47201;40.428;-8.436;2023-07-13T09:42:37;13.10;;;2.45;;
61317;SDS011;47201;40.428;-8.436;2023-07-13T09:44:39;4.90;;;2.40;;
61317;SDS011;47201;40.428;-8.436;2023-07-13T09:46:52;8.27;;;2.45;;
61317;SDS011;47201;40.428;-8.436;2023-07-13T09:48:55;3.55;;;2.30;;
61317;SDS011;47201;40.428;-8.436;2023-07-13T09:50:57;7.45;;;2.33;;
61317;SDS011;47201;40.428;-8.436;2023-07-13T09:57:34;5.38;;;2.80;;
61317;SDS011;47201;40.428;-8.436;2023-07-13T09:59:36;5.90;;;2.83;;
61317;SDS011;47201;40.428;-8.436;2023-07-13T10:01:41;4.80;;;2.58;;
61317;SDS011;47201;40.428;-8.436;2023-07-13T10:03:54;7.10;;;2.95;;
61317;SDS011;47201;40.428;-8.436;2023-07-13T10:05:55;9.75;;;3.03;;
61317;SDS011;47201;40.428;-8.436;2023-07-13T10:08:29;10.48;;;2.88;;
61317;SDS011;47201;40.428;-8.436;2023-07-13T10:10:33;4.07;;;2.00;;
61317;SDS011;47201;40.428;-8.436;2023-07-13T10:12:36;7.38;;;2.33;;
61317;SDS011;47201;40.428;-8.436;2023-07-13T10:14:39;5.72;;;2.08;;
61317;SDS011;47201;40.428;-8.436;2023-07-13T10:16:43;6.68;;;2.17;;
61317;SDS011;47201;40.428;-8.436;2023-07-13T10:18:46;2.63;;;2.38;;
61317;SDS011;47201;40.428;-8.436;2023-07-13T10:20:50;5.72;;;3.13;;
61317;SDS011;47201;40.428;-8.436;2023-07-13T10:25:01;6.88;;;2.70;;
61317;SDS011;47201;40.428;-8.436;2023-07-13T10:29:27;2.80;;;2.50;;
61317;SDS011;47201;40.428;-8.436;2023-07-13T10:31:29;10.82;;;3.03;;
61317;SDS011;47201;40.428;-8.436;2023-07-13T10:33:31;3.78;;;2.55;;
61317;SDS011;47201;40.428;-8.436;2023-07-13T10:35:31;8.40;;;2.78;;
61317;SDS011;47201;40.428;-8.436;2023-07-13T10:37:39;4.93;;;2.47;;
61317;SDS011;47201;40.428;-8.436;2023-07-13T10:39:46;6.57;;;2.45;;
61317;SDS011;47201;40.428;-8.436;2023-07-13T10:41:52;3.92;;;2.58;;
61317;SDS011;47201;40.428;-8.436;2023-07-13T10:43:55;3.78;;;2.40;;
61317;SDS011;47201;40.428;-8.436;2023-07-13T10:45:58;4.22;;;2.15;;
61317;SDS011;47201;40.428;-8.436;2023-07-13T10:47:59;6.32;;;2.55;;
61317;SDS011;47201;40.428;-8.436;2023-07-13T10:50:01;9.88;;;3.00;;
61317;SDS011;47201;40.428;-8.436;2023-07-13T10:52:03;6.32;;;2.47;;
61317;SDS011;47201;40.428;-8.436;2023-07-13T10:56:28;5.30;;;2.67;;
61317;SDS011;47201;40.428;-8.436;2023-07-13T10:58:34;2.83;;;2.45;;
61317;SDS011;47201;40.428;-8.436;2023-07-13T11:00:42;8.55;;;2.50;;
61317;SDS011;47201;40.428;-8.436;2023-07-13T11:03:00;6.07;;;2.47;;
61317;SDS011;47201;40.428;-8.436;2023-07-13T11:05:14;8.60;;;2.60;;
61317;SDS011;47201;40.428;-8.436;2023-07-13T11:07:51;4.40;;;2.50;;
61317;SDS011;47201;40.428;-8.436;2023-07-13T11:09:55;3.55;;;2.53;;
61317;SDS011;47201;40.428;-8.436;2023-07-13T11:12:00;3.65;;;2.67;;
61317;SDS011;47201;40.428;-8.436;2023-07-13T11:14:03;5.57;;;2.60;;
61317;SDS011;47201;40.428;-8.436;2023-07-13T11:18:20;5.15;;;2.17;;
61317;SDS011;47201;40.428;-8.436;2023-07-13T11:20:24;4.50;;;2.65;;
61317;SDS011;47201;40.428;-8.436;2023-07-13T11:22:46;7.00;;;2.22;;
61317;SDS011;47201;40.428;-8.436;2023-07-13T11:26:57;8.60;;;2.40;;
61317;SDS011;47201;40.428;-8.436;2023-07-13T11:28:57;6.18;;;2.10;;
61317;SDS011;47201;40.428;-8.436;2023-07-13T11:35:15;7.00;;;2.05;;
61317;SDS011;47201;40.428;-8.436;2023-07-13T11:37:23;6.97;;;2.20;;
61317;SDS011;47201;40.428;-8.436;2023-07-13T11:41:31;3.30;;;1.80;;
61317;SDS011;47201;40.428;-8.436;2023-07-13T11:43:43;2.10;;;1.80;;
61317;SDS011;47201;40.428;-8.436;2023-07-13T11:45:44;7.28;;;2.30;;
61317;SDS011;47201;40.428;-8.436;2023-07-13T11:47:45;4.93;;;2.08;;
61317;SDS011;47201;40.428;-8.436;2023-07-13T11:49:50;3.97;;;2.33;;
61317;SDS011;47201;40.428;-8.436;2023-07-13T11:51:59;10.15;;;2.42;;
61317;SDS011;47201;40.428;-8.436;2023-07-13T11:54:04;5.60;;;1.92;;
61317;SDS011;47201;40.428;-8.436;2023-07-13T11:56:07;6.93;;;2.30;;
61317;SDS011;47201;40.428;-8.436;2023-07-13T11:58:08;6.88;;;1.98;;
61317;SDS011;47201;40.428;-8.436;2023-07-13T12:00:12;2.00;;;1.70;;
61317;SDS011;47201;40.428;-8.436;2023-07-13T12:02:16;4.18;;;1.92;;
61317;SDS011;47201;40.428;-8.436;2023-07-13T12:04:30;8.02;;;2.25;;
61317;SDS011;47201;40.428;-8.436;2023-07-13T12:06:36;7.63;;;1.98;;
61317;SDS011;47201;40.428;-8.436;2023-07-13T12:08:41;7.10;;;1.73;;
61317;SDS011;47201;40.428;-8.436;2023-07-13T12:10:42;8.27;;;2.55;;
61317;SDS011;47201;40.428;-8.436;2023-07-13T12:12:47;5.70;;;2.00;;
61317;SDS011;47201;40.428;-8.436;2023-07-13T12:14:51;5.80;;;2.22;;
61317;SDS011;47201;40.428;-8.436;2023-07-13T12:16:52;6.63;;;2.10;;
61317;SDS011;47201;40.428;-8.436;2023-07-13T12:18:55;5.70;;;2.25;;
61317;SDS011;47201;40.428;-8.436;2023-07-13T12:20:58;9.40;;;2.25;;
61317;SDS011;47201;40.428;-8.436;2023-07-13T12:22:59;4.07;;;2.00;;
61317;SDS011;47201;40.428;-8.436;2023-07-13T12:25:02;9.45;;;2.38;;
61317;SDS011;47201;40.428;-8.436;2023-07-13T12:27:05;7.07;;;2.30;;
61317;SDS011;47201;40.428;-8.436;2023-07-13T12:29:07;7.03;;;2.05;;
61317;SDS011;47201;40.428;-8.436;2023-07-13T12:31:19;4.85;;;2.17;;
61317;SDS011;47201;40.428;-8.436;2023-07-13T12:33:24;7.90;;;2.50;;
61317;SDS011;47201;40.428;-8.436;2023-07-13T12:35:29;6.88;;;2.08;;
61317;SDS011;47201;40.428;-8.436;2023-07-13T12:37:33;12.82;;;3.08;;
61317;SDS011;47201;40.428;-8.436;2023-07-13T12:39:36;8.80;;;2.30;;
61317;SDS011;47201;40.428;-8.436;2023-07-13T12:41:43;4.57;;;2.20;;
61317;SDS011;47201;40.428;-8.436;2023-07-13T12:43:45;3.95;;;1.90;;
61317;SDS011;47201;40.428;-8.436;2023-07-13T12:45:56;10.15;;;2.03;;
61317;SDS011;47201;40.428;-8.436;2023-07-13T12:47:58;5.75;;;2.30;;
61317;SDS011;47201;40.428;-8.436;2023-07-13T12:50:12;2.45;;;1.70;;